Weather History for KPVB - May, 2013

Change the Weather History Date:

Tuesday, May 14, 2013

  Actual Average (KDBQ) Record (KDBQ)
Temperature  
Mean Temperature 72 °F 58 °F  
Max Temperature 91 °F 68 °F 92 °F (1932)
Min Temperature 52 °F 48 °F 30 °F (1895)
Degree Days  
Heating Degree Days 0 8  
Month to date heating degree days 132  
Since 1 July heating degree days 6953  
Cooling Degree Days 6 1  
Month to date cooling degree days 6  
Year to date cooling degree days 11  
Growing Degree Days 22 (Base 50)    
Moisture  
Dew Point 49 °F    
Average Humidity 48    
Maximum Humidity 72    
Minimum Humidity 19    
Precipitation  
Precipitation 0.02 in 0.14 in 2.14 in (1985)
Month to date precipitation 1.87  
Year to date precipitation 10.55  
Snow  
Snow 0.00 in 0.00 in - ()
Month to date snowfall 0.1  
Since 1 July snowfall 42.0  
Snow Depth -    
Sea Level Pressure  
Sea Level Pressure 29.73 in    
Wind  
Wind Speed 13 mph (SSW)    
Max Wind Speed 23 mph    
Max Gust Speed 29 mph    
Visibility 10 miles    
Events      
T = Trace of Precipitation, MM = Missing Value Source: NWS Daily Summary

Daily Weather History Graph

Daily Weather History Graph

Search for Another Location

Airport or City:

Trip Planner

Search our weather history database for the weather conditions in past years. The results will help you decide how hot, cold, wet, or windy it might be!

Date:

Astronomy

May. 14, 2013 Rise Set
Actual Time 5:40 AM CDT 8:16 PM CDT
Civil Twilight 5:07 AM CDT 8:49 PM CDT
Nautical Twilight 4:27 AM CDT 9:29 PM CDT
Astronomical Twilight 3:41 AM CDT 10:15 PM CDT
Moon 9:20 AM CDT (5/14) No Moon Set
Length of Visible Light 15h 41m
Length of Day
14h 36m
Waxing Crescent, 19% of the Moon is Illuminated
May 14
Waxing Crescent
May 17
First Quarter
May 24
Full
May 31
Last Quarter
Jun 8
New

Hourly Weather History & Observations

Time (CDT) Temp. Heat Index Dew Point Humidity Pressure Visibility Wind Dir Wind Speed Gust Speed Precip Events Conditions
12:15 AM 58.5 °F - 39.6 °F 49% 29.89 in 10.0 mi South 17.3 mph - N/A   Clear
12:35 AM 57.6 °F - 39.7 °F 51% 29.88 in 10.0 mi South 16.1 mph - N/A   Clear
12:55 AM 57.2 °F - 39.9 °F 52% 29.87 in 10.0 mi South 15.0 mph - N/A   Clear
1:15 AM 56.7 °F - 40.1 °F 54% 29.86 in 10.0 mi South 16.1 mph - N/A   Clear
1:35 AM 56.5 °F - 40.1 °F 54% 29.85 in 10.0 mi South 15.0 mph - N/A   Clear
1:55 AM 56.3 °F - 40.1 °F 55% 29.84 in 10.0 mi South 15.0 mph - N/A   Clear
2:15 AM 55.9 °F - 40.3 °F 56% 29.83 in 10.0 mi South 15.0 mph - N/A   Clear
2:35 AM 56.3 °F - 40.3 °F 55% 29.82 in 10.0 mi South 12.7 mph - N/A   Clear
2:55 AM 55.8 °F - 40.3 °F 56% 29.81 in 10.0 mi South 15.0 mph - N/A   Clear
3:15 AM 55.8 °F - 40.1 °F 56% 29.80 in 10.0 mi South 15.0 mph - N/A   Clear
3:35 AM 55.4 °F - 40.3 °F 57% 29.80 in 10.0 mi South 10.4 mph - N/A   Clear
3:55 AM 54.7 °F - 40.8 °F 60% 29.79 in 10.0 mi South 12.7 mph - N/A   Clear
4:15 AM 54.5 °F - 41.2 °F 61% 29.78 in 10.0 mi South 10.4 mph - N/A   Clear
4:35 AM 54.0 °F - 41.5 °F 63% 29.78 in 10.0 mi South 11.5 mph - N/A   Clear
4:55 AM 53.6 °F - 41.9 °F 65% 29.77 in 10.0 mi SSW 12.7 mph - N/A   Clear
5:15 AM 52.9 °F - 42.1 °F 67% 29.77 in 10.0 mi SSW 11.5 mph - N/A   Clear
5:35 AM 52.7 °F - 42.8 °F 69% 29.77 in 10.0 mi SSW 11.5 mph - N/A   Clear
5:55 AM 52.2 °F - 43.2 °F 71% 29.77 in 10.0 mi South 11.5 mph - N/A   Clear
6:15 AM 52.5 °F - 43.7 °F 72% 29.77 in 10.0 mi South 10.4 mph - N/A   Clear
6:35 AM 53.6 °F - 44.4 °F 71% 29.77 in 10.0 mi SSW 10.4 mph - N/A   Clear
6:55 AM 54.9 °F - 45.0 °F 69% 29.77 in 10.0 mi SSW 9.2 mph - N/A   Clear
7:15 AM 56.3 °F - 45.9 °F 68% 29.77 in 10.0 mi SSW 9.2 mph - N/A   Clear
7:35 AM 57.9 °F - 47.1 °F 67% 29.77 in 10.0 mi SSW 8.1 mph - N/A   Clear
7:55 AM 59.7 °F - 48.4 °F 66% 29.77 in 10.0 mi SW 10.4 mph - N/A   Clear
8:15 AM 61.7 °F - 49.3 °F 64% 29.77 in 10.0 mi SW 10.4 mph - N/A   Clear
8:35 AM 63.7 °F - 50.2 °F 61% 29.77 in 10.0 mi SW 11.5 mph - N/A   Clear
8:55 AM 65.3 °F - 50.9 °F 60% 29.77 in 10.0 mi WSW 11.5 mph - N/A   Clear
9:15 AM 66.4 °F - 51.3 °F 58% 29.77 in 10.0 mi WSW 10.4 mph - N/A   Clear
9:35 AM 68.0 °F - 51.3 °F 55% 29.76 in 10.0 mi WSW 10.4 mph - N/A   Clear
9:55 AM 69.4 °F - 52.0 °F 54% 29.76 in 10.0 mi WSW 11.5 mph - N/A   Clear
10:15 AM 71.1 °F - 52.3 °F 52% 29.76 in 10.0 mi SW 6.9 mph - N/A   Clear
10:35 AM 73.4 °F - 53.1 °F 49% 29.77 in 10.0 mi SSW 6.9 mph - N/A   Clear
10:55 AM 75.4 °F - 54.1 °F 48% 29.77 in 10.0 mi SSW 8.1 mph - N/A   Clear
11:15 AM 77.0 °F - 52.9 °F 43% 29.77 in 10.0 mi WSW 6.9 mph - N/A   Clear
11:35 AM 78.6 °F - 52.9 °F 41% 29.77 in 10.0 mi WSW 6.9 mph - N/A   Clear
11:55 AM 80.6 °F 80.3 °F 53.2 °F 39% 29.77 in 10.0 mi SSW 4.6 mph - N/A   Clear
12:15 PM 82.0 °F - 52.3 °F 36% 29.76 in 10.0 mi SW 9.2 mph - N/A   Clear
12:35 PM 82.9 °F - 52.5 °F 35% 29.76 in 10.0 mi SW 11.5 mph - N/A   Clear
12:55 PM 84.4 °F 82.8 °F 53.4 °F 34% 29.75 in 10.0 mi SSW 8.1 mph - N/A   Clear
1:15 PM 84.7 °F - 51.4 °F 32% 29.74 in 10.0 mi SSW 9.2 mph - N/A   Clear
1:35 PM 86.5 °F - 51.1 °F 29% 29.74 in 10.0 mi SSW 8.1 mph - N/A   Clear
1:55 PM 87.8 °F - 50.2 °F 27% 29.74 in 10.0 mi SSW 10.4 mph - N/A   Clear
2:15 PM 88.2 °F - 50.0 °F 27% 29.74 in 10.0 mi SW 6.9 mph - N/A   Clear
2:35 PM 89.1 °F - 48.0 °F 24% 29.74 in 10.0 mi South 5.8 mph - N/A   Clear
2:55 PM 88.3 °F - 47.1 °F 24% 29.72 in 10.0 mi SW 3.5 mph - N/A   Clear
3:15 PM 89.6 °F - 49.8 °F 25% 29.72 in 10.0 mi South 10.4 mph - N/A   Clear
3:35 PM 90.3 °F - 46.4 °F 22% 29.70 in 10.0 mi South 10.4 mph 16.1 mph N/A   Clear
3:55 PM 90.7 °F - 43.5 °F 19% 29.68 in 10.0 mi South 16.1 mph 19.6 mph N/A   Clear
4:15 PM 90.7 °F - 48.7 °F 24% 29.67 in 10.0 mi South 17.3 mph 21.9 mph N/A   Clear
4:35 PM 91.0 °F - 47.5 °F 22% 29.66 in 10.0 mi SSE 19.6 mph 23.0 mph N/A   Clear
4:55 PM 91.4 °F - 46.0 °F 21% 29.65 in 10.0 mi South 20.7 mph - N/A   Clear
5:15 PM 91.4 °F - 44.8 °F 20% 29.64 in 10.0 mi South 19.6 mph - N/A   Clear
5:35 PM 91.4 °F - 46.4 °F 21% 29.62 in 10.0 mi South 21.9 mph 28.8 mph N/A   Clear
5:55 PM 90.7 °F - 48.0 °F 23% 29.61 in 10.0 mi South 23.0 mph - N/A   Clear
6:15 PM 89.8 °F - 46.9 °F 23% 29.60 in 10.0 mi South 20.7 mph - N/A   Clear
6:35 PM 87.8 °F - 48.9 °F 26% 29.60 in 10.0 mi South 16.1 mph - N/A   Clear
6:55 PM 85.5 °F - 50.7 °F 30% 29.60 in 10.0 mi South 15.0 mph - N/A   Clear
7:15 PM 84.4 °F - 52.0 °F 33% 29.60 in 10.0 mi South 11.5 mph - N/A   Scattered Clouds
7:35 PM 83.8 °F 82.7 °F 54.7 °F 37% 29.62 in 10.0 mi South 9.2 mph - N/A   Scattered Clouds
7:55 PM 79.3 °F - 62.6 °F 56% 29.66 in - WNW 3.5 mph - N/A   Unknown
8:15 PM 81.5 °F 81.8 °F 59.2 °F 47% 29.65 in 7.0 mi Calm Calm - 0.01 in   Mostly Cloudy
8:35 PM 76.6 °F - 63.3 °F 63% 29.65 in 10.0 mi South 11.5 mph - 0.02 in   Overcast
8:55 PM 78.3 °F - 61.2 °F 56% 29.61 in 10.0 mi South 17.3 mph 20.7 mph 0.02 in   Scattered Clouds
9:15 PM 78.6 °F - 60.6 °F 54% 29.62 in 10.0 mi South 16.1 mph 24.2 mph N/A   Clear
9:35 PM 76.5 °F - 60.8 °F 58% 29.62 in 10.0 mi South 13.8 mph - N/A   Clear
9:55 PM 75.7 °F - 60.3 °F 59% 29.63 in 10.0 mi South 13.8 mph - N/A   Clear
10:15 PM 74.8 °F - 59.9 °F 60% 29.64 in 10.0 mi South 12.7 mph - N/A   Clear
10:35 PM 72.3 °F - 59.9 °F 65% 29.64 in 10.0 mi SSW 9.2 mph - N/A   Clear
10:55 PM 71.8 °F - 59.5 °F 65% 29.64 in 10.0 mi SSW 11.5 mph - N/A   Clear
11:15 PM 70.9 °F - 59.2 °F 66% 29.64 in 10.0 mi SSW 10.4 mph - N/A   Clear
11:35 PM 71.2 °F - 58.6 °F 64% 29.64 in 10.0 mi SSW 11.5 mph - N/A   Clear
11:55 PM 70.7 °F - 58.3 °F 65% 29.65 in 10.0 mi SW 11.5 mph - N/A   Clear